createdAt,value
2018-12-30T00:00:51.836Z,17.13
2018-12-30T00:03:26.012Z,15.23
2018-12-30T00:06:00.154Z,15.53
2018-12-30T00:08:35.083Z,12.60
2018-12-30T00:11:09.196Z,16.37
2018-12-30T00:13:43.320Z,15.13
2018-12-30T00:16:18.321Z,15.97
2018-12-30T00:18:53.204Z,16.70
2018-12-30T00:21:27.361Z,14.37
2018-12-30T00:24:01.475Z,15.17
2018-12-30T00:26:35.403Z,13.90
2018-12-30T00:29:09.466Z,15.03
2018-12-30T00:31:43.577Z,14.93
2018-12-30T00:34:17.787Z,14.03
2018-12-30T00:36:51.956Z,13.37
2018-12-30T00:39:25.988Z,16.07
2018-12-30T00:41:59.979Z,13.90
2018-12-30T00:44:34.006Z,12.97
2018-12-30T00:47:07.963Z,13.57
2018-12-30T00:49:42.060Z,14.40
2018-12-30T00:52:16.126Z,12.13
2018-12-30T00:54:50.244Z,12.43
2018-12-30T00:57:24.387Z,15.33
2018-12-30T00:59:58.395Z,14.37
2018-12-30T01:02:32.527Z,15.17
2018-12-30T01:05:06.609Z,15.47
2018-12-30T01:07:41.316Z,11.57
2018-12-30T01:10:15.312Z,13.97
2018-12-30T01:12:49.325Z,13.80
2018-12-30T01:15:23.352Z,12.60
2018-12-30T01:17:58.150Z,13.33
2018-12-30T01:20:32.035Z,14.27
2018-12-30T01:23:06.686Z,13.40
2018-12-30T01:25:40.666Z,12.03
2018-12-30T01:28:14.659Z,12.73
2018-12-30T01:30:48.773Z,9.70
2018-12-30T01:33:22.904Z,13.90
2018-12-30T01:35:57.120Z,13.37
2018-12-30T01:38:31.207Z,12.23
2018-12-30T01:41:05.158Z,13.00
2018-12-30T01:43:39.208Z,14.20
2018-12-30T01:46:13.254Z,13.93
2018-12-30T01:48:47.390Z,13.07
2018-12-30T01:51:22.291Z,12.00
2018-12-30T01:53:56.436Z,14.97
2018-12-30T01:56:30.528Z,11.67
2018-12-30T01:59:04.661Z,13.73
2018-12-30T02:01:38.766Z,13.70
2018-12-30T02:04:12.971Z,12.83
2018-12-30T02:06:47.068Z,11.93
2018-12-30T02:09:21.240Z,11.40
2018-12-30T02:11:55.399Z,13.10
2018-12-30T02:14:29.445Z,11.50
2018-12-30T02:17:04.189Z,13.07
2018-12-30T02:19:38.271Z,15.00
2018-12-30T02:22:13.031Z,13.93
2018-12-30T02:24:47.091Z,13.70
2018-12-30T02:27:21.206Z,12.23
2018-12-30T02:29:55.426Z,13.00
2018-12-30T02:32:29.459Z,12.10
2018-12-30T02:35:04.195Z,10.10
2018-12-30T02:37:38.400Z,14.20
2018-12-30T02:40:12.599Z,15.57
2018-12-30T02:42:46.645Z,19.07
2018-12-30T02:45:20.671Z,12.80
2018-12-30T02:47:54.840Z,13.10
2018-12-30T02:50:28.848Z,12.60
2018-12-30T02:53:02.887Z,12.07
2018-12-30T02:55:36.788Z,10.70
2018-12-30T02:58:10.868Z,11.23
2018-12-30T03:00:45.008Z,12.07
2018-12-30T03:03:19.134Z,10.67
2018-12-30T03:05:53.096Z,14.57
2018-12-30T03:08:27.155Z,11.87
2018-12-30T03:11:01.227Z,13.37
2018-12-30T03:13:35.384Z,12.40
2018-12-30T03:16:09.488Z,11.77
2018-12-30T03:18:43.457Z,11.97
2018-12-30T03:21:18.217Z,11.83
2018-12-30T03:23:52.205Z,12.67
2018-12-30T03:26:26.191Z,10.80
2018-12-30T03:29:00.314Z,9.77
2018-12-30T03:31:34.363Z,9.07
2018-12-30T03:34:08.343Z,10.27
2018-12-30T03:36:42.480Z,12.07
2018-12-30T03:39:17.494Z,11.47
2018-12-30T03:41:51.607Z,9.73
2018-12-30T03:44:26.470Z,11.67
2018-12-30T03:47:01.272Z,11.60
2018-12-30T03:49:35.393Z,8.77
2018-12-30T03:52:20.026Z,9.27
2018-12-30T03:54:54.144Z,13.00
2018-12-30T03:57:28.133Z,9.27
2018-12-30T04:00:02.062Z,10.97
2018-12-30T04:02:36.138Z,11.53
2018-12-30T04:05:10.231Z,8.33
2018-12-30T04:07:45.075Z,12.70
2018-12-30T04:10:19.224Z,9.67
2018-12-30T04:12:53.210Z,11.13
2018-12-30T04:15:27.412Z,8.27
2018-12-30T04:18:01.495Z,7.63
2018-12-30T04:20:35.578Z,10.93
2018-12-30T04:23:09.651Z,5.50
2018-12-30T04:25:44.433Z,8.30
2018-12-30T04:28:18.552Z,11.20
2018-12-30T04:30:52.610Z,6.60
2018-12-30T04:33:26.676Z,7.40
2018-12-30T04:36:01.609Z,7.00
2018-12-30T04:38:35.724Z,7.10
2018-12-30T04:41:09.837Z,7.57
2018-12-30T04:43:43.928Z,7.57
2018-12-30T04:46:17.954Z,11.03
2018-12-30T04:48:51.949Z,7.57
2018-12-30T04:51:26.147Z,9.27
2018-12-30T04:54:00.302Z,6.13
2018-12-30T04:56:34.430Z,8.50
2018-12-30T04:59:08.404Z,7.97
2018-12-30T05:01:42.541Z,7.00
2018-12-30T05:04:17.507Z,6.47
2018-12-30T05:06:52.396Z,7.70
2018-12-30T05:09:27.296Z,7.10
2018-12-30T05:12:01.278Z,9.97
2018-12-30T05:14:35.390Z,5.60
2018-12-30T05:17:09.551Z,10.27
2018-12-30T05:19:43.584Z,3.67
2018-12-30T05:22:17.568Z,5.10
2018-12-30T05:24:51.716Z,5.23
2018-12-30T05:27:25.827Z,3.60
2018-12-30T05:29:59.992Z,5.80
2018-12-30T05:32:34.112Z,7.83
2018-12-30T05:35:08.103Z,5.10
2018-12-30T05:37:42.020Z,4.37
2018-12-30T05:40:15.964Z,4.70
2018-12-30T05:42:50.030Z,6.30
2018-12-30T05:45:24.072Z,5.03
2018-12-30T05:47:58.154Z,11.43
2018-12-30T05:50:32.205Z,8.10
2018-12-30T05:53:06.279Z,8.07
2018-12-30T05:55:41.164Z,6.47
2018-12-30T05:58:15.280Z,8.37
2018-12-30T06:00:49.294Z,6.47
2018-12-30T06:03:23.392Z,11.97
2018-12-30T06:05:57.508Z,4.83
2018-12-30T06:08:31.597Z,8.90
2018-12-30T06:11:05.689Z,6.70
2018-12-30T06:13:39.912Z,8.13
2018-12-30T06:16:14.115Z,11.27
2018-12-30T06:18:48.091Z,5.37
2018-12-30T06:21:22.188Z,7.73
2018-12-30T06:23:56.284Z,5.87
2018-12-30T06:26:30.335Z,6.13
2018-12-30T06:29:04.445Z,10.60
2018-12-30T06:31:38.564Z,6.07
2018-12-30T06:34:12.641Z,8.57
2018-12-30T06:36:46.857Z,5.70
2018-12-30T06:39:21.017Z,7.70
2018-12-30T06:41:55.104Z,6.57
2018-12-30T06:44:29.187Z,7.13
2018-12-30T06:47:03.327Z,13.00
2018-12-30T06:49:38.322Z,8.87
2018-12-30T06:52:12.508Z,3.87
2018-12-30T06:54:47.409Z,7.30
2018-12-30T06:57:22.251Z,5.33
2018-12-30T06:59:57.063Z,4.87
2018-12-30T07:02:31.152Z,6.27
2018-12-30T07:05:05.321Z,9.13
2018-12-30T07:07:39.377Z,7.93
2018-12-30T07:10:13.476Z,7.83
2018-12-30T07:12:47.596Z,5.73
2018-12-30T07:15:21.741Z,6.97
2018-12-30T07:17:55.864Z,10.20
2018-12-30T07:20:29.969Z,7.80
2018-12-30T07:23:05.997Z,6.67
2018-12-30T07:25:39.127Z,11.73
2018-12-30T07:28:13.201Z,8.20
2018-12-30T07:30:47.252Z,10.97
2018-12-30T07:33:23.057Z,10.93
2018-12-30T07:35:55.455Z,3.33
2018-12-30T07:38:29.576Z,9.57
2018-12-30T07:41:03.666Z,10.00
2018-12-30T07:43:37.731Z,3.50
2018-12-30T07:46:11.739Z,9.43
2018-12-30T07:48:45.758Z,8.17
2018-12-30T07:51:19.766Z,6.90
2018-12-30T07:53:53.712Z,8.83
2018-12-30T07:56:27.756Z,12.57
2018-12-30T07:59:01.892Z,14.87
2018-12-30T08:01:36.203Z,7.73
2018-12-30T08:04:11.597Z,8.73
2018-12-30T08:06:45.829Z,13.03
2018-12-30T08:09:20.962Z,5.07
2018-12-30T08:11:55.978Z,8.47
2018-12-30T08:14:30.150Z,11.07
2018-12-30T08:17:04.373Z,7.67
2018-12-30T08:19:38.682Z,11.10
2018-12-30T08:22:12.970Z,5.13
2018-12-30T08:24:47.190Z,6.00
2018-12-30T08:27:21.437Z,8.40
2018-12-30T08:29:55.520Z,9.27
2018-12-30T08:32:29.740Z,11.77
2018-12-30T08:35:04.079Z,9.23
2018-12-30T08:37:38.257Z,8.37
2018-12-30T08:40:12.393Z,5.40
2018-12-30T08:42:46.723Z,7.83
2018-12-30T08:45:20.896Z,5.90
2018-12-30T08:47:55.031Z,11.27
2018-12-30T08:50:29.252Z,9.13
2018-12-30T08:53:03.309Z,11.07
2018-12-30T08:55:37.296Z,7.63
2018-12-30T08:58:11.301Z,5.47
2018-12-30T09:00:45.452Z,8.17
2018-12-30T09:03:19.539Z,7.47
2018-12-30T09:05:53.532Z,9.63
2018-12-30T09:08:27.563Z,11.87
2018-12-30T09:11:01.774Z,8.30
2018-12-30T09:13:35.859Z,10.10
2018-12-30T09:16:09.955Z,6.93
2018-12-30T09:18:45.013Z,6.83
2018-12-30T09:21:19.053Z,8.53
2018-12-30T09:23:53.173Z,6.50
2018-12-30T09:26:27.297Z,9.07
2018-12-30T09:29:01.395Z,10.70
2018-12-30T09:31:35.506Z,6.30
2018-12-30T09:34:10.429Z,5.97
2018-12-30T09:36:45.295Z,9.30
2018-12-30T09:39:19.607Z,7.30
2018-12-30T09:41:54.680Z,10.40
2018-12-30T09:44:29.410Z,6.43
2018-12-30T09:47:03.529Z,6.40
2018-12-30T09:49:37.917Z,7.80
2018-12-30T09:52:12.047Z,10.27
2018-12-30T09:54:46.140Z,8.07
2018-12-30T09:57:21.148Z,10.13
2018-12-30T09:59:55.177Z,9.90
2018-12-30T10:02:29.384Z,11.30
2018-12-30T10:05:08.891Z,10.00
2018-12-30T10:07:48.491Z,8.10
2018-12-30T10:10:34.658Z,12.23
2018-12-30T10:13:08.706Z,10.40
2018-12-30T10:15:43.885Z,10.47
2018-12-30T10:18:17.818Z,6.27
2018-12-30T10:20:51.804Z,7.83
2018-12-30T10:23:25.840Z,10.37
2018-12-30T10:26:00.139Z,8.60
2018-12-30T10:28:34.174Z,7.27
2018-12-30T10:31:08.260Z,6.00
2018-12-30T10:33:42.561Z,8.80
2018-12-30T10:36:16.721Z,7.43
2018-12-30T10:42:58.071Z,11.77
2018-12-30T10:45:32.233Z,8.27
2018-12-30T10:48:06.233Z,6.33
2018-12-30T10:50:41.077Z,6.43
2018-12-30T10:53:15.147Z,9.93
2018-12-30T10:55:49.313Z,17.40
2018-12-30T10:58:24.301Z,7.50
2018-12-30T11:00:59.099Z,8.03
2018-12-30T11:03:33.345Z,6.73
2018-12-30T11:06:07.390Z,6.27
2018-12-30T11:08:41.348Z,8.40
2018-12-30T11:11:15.357Z,8.77
2018-12-30T11:13:50.294Z,11.37
2018-12-30T11:16:24.294Z,11.33
2018-12-30T11:18:58.366Z,7.70
2018-12-30T11:21:32.517Z,13.97
2018-12-30T11:24:08.799Z,6.97
2018-12-30T11:26:41.360Z,9.67
2018-12-30T11:29:15.667Z,10.23
2018-12-30T11:31:49.676Z,6.47
2018-12-30T11:34:23.791Z,9.13
2018-12-30T11:36:57.936Z,15.10
2018-12-30T11:39:32.008Z,10.27
2018-12-30T11:42:06.163Z,8.60
2018-12-30T11:44:40.225Z,8.07
2018-12-30T11:47:14.207Z,13.93
2018-12-30T11:49:48.407Z,10.33
2018-12-30T11:52:22.557Z,10.40
2018-12-30T11:54:56.614Z,7.90
2018-12-30T11:57:30.582Z,8.90
2018-12-30T12:00:04.813Z,10.80
2018-12-30T12:02:38.815Z,7.60
2018-12-30T12:05:12.869Z,8.50
2018-12-30T12:07:47.665Z,7.43
2018-12-30T12:10:21.776Z,9.27
2018-12-30T12:12:55.809Z,7.17
2018-12-30T12:15:30.041Z,9.27
2018-12-30T12:18:04.050Z,9.17
2018-12-30T12:20:38.021Z,7.40
2018-12-30T12:23:12.166Z,6.93
2018-12-30T12:25:46.410Z,7.33
2018-12-30T12:28:20.477Z,7.97
2018-12-30T12:30:54.590Z,9.83
2018-12-30T12:33:28.737Z,4.93
2018-12-30T12:36:02.830Z,11.63
2018-12-30T12:38:36.826Z,7.63
2018-12-30T12:41:11.000Z,6.43
2018-12-30T12:43:45.063Z,10.10
2018-12-30T12:46:19.128Z,7.73
2018-12-30T12:48:53.190Z,7.53
2018-12-30T12:51:27.092Z,4.30
2018-12-30T12:54:01.210Z,11.27
2018-12-30T12:56:35.359Z,10.30
2018-12-30T12:59:09.437Z,5.63
2018-12-30T13:01:43.446Z,6.67
2018-12-30T13:04:18.403Z,6.97
2018-12-30T13:06:52.401Z,5.70
2018-12-30T13:09:27.318Z,5.97
2018-12-30T13:12:01.318Z,10.13
2018-12-30T13:14:35.382Z,9.63
2018-12-30T13:17:10.377Z,7.50
2018-12-30T13:19:44.358Z,5.60
2018-12-30T13:22:19.289Z,7.93
2018-12-30T13:24:53.257Z,9.27
2018-12-30T13:27:27.496Z,5.67
2018-12-30T13:30:01.652Z,5.17
2018-12-30T13:32:35.836Z,6.67
2018-12-30T13:35:10.034Z,9.80
2018-12-30T13:37:44.260Z,8.27
2018-12-30T13:40:20.198Z,5.80
2018-12-30T13:42:52.495Z,5.47
2018-12-30T13:45:26.628Z,12.87
2018-12-30T13:48:00.713Z,8.73
2018-12-30T13:50:35.704Z,9.63
2018-12-30T13:53:10.529Z,5.43
2018-12-30T13:55:44.603Z,10.33
2018-12-30T13:58:18.779Z,10.50
2018-12-30T14:00:52.992Z,8.00
2018-12-30T14:03:27.188Z,8.67
2018-12-30T14:06:01.155Z,10.20
2018-12-30T14:08:35.292Z,8.23
2018-12-30T14:11:09.317Z,9.83
2018-12-30T14:13:43.436Z,8.40
2018-12-30T14:16:18.186Z,7.73
2018-12-30T14:18:52.246Z,9.27
2018-12-30T14:21:26.365Z,7.57
2018-12-30T14:24:00.358Z,9.13
2018-12-30T14:26:34.471Z,10.33
2018-12-30T14:29:09.288Z,10.17
2018-12-30T14:31:43.272Z,8.70
2018-12-30T14:34:17.370Z,6.63
2018-12-30T14:36:51.387Z,15.27
2018-12-30T14:39:25.580Z,12.60
2018-12-30T14:41:59.707Z,6.93
2018-12-30T14:44:33.780Z,10.47
2018-12-30T14:47:08.649Z,9.40
2018-12-30T14:49:42.882Z,6.40
2018-12-30T14:52:16.911Z,6.97
2018-12-30T14:54:50.956Z,8.00
2018-12-30T14:57:25.032Z,6.70
2018-12-30T14:59:59.093Z,11.20
2018-12-30T15:02:33.289Z,11.37
2018-12-30T15:05:08.196Z,9.47
2018-12-30T15:07:42.177Z,10.47
2018-12-30T15:10:16.111Z,6.83
2018-12-30T15:12:50.170Z,8.90
2018-12-30T15:15:24.268Z,12.20
2018-12-30T15:17:58.422Z,13.93
2018-12-30T15:20:33.157Z,10.70
2018-12-30T15:23:08.069Z,13.07
2018-12-30T15:25:42.149Z,12.40
2018-12-30T15:28:16.291Z,11.07
2018-12-30T15:30:50.486Z,12.63
2018-12-30T15:33:24.604Z,10.23
2018-12-30T15:35:58.659Z,12.17
2018-12-30T15:38:32.945Z,12.27
2018-12-30T15:41:06.887Z,11.93
2018-12-30T15:43:41.022Z,11.87
2018-12-30T15:46:17.025Z,10.20
2018-12-30T15:48:49.331Z,8.20
2018-12-30T15:51:24.121Z,9.17
2018-12-30T15:53:58.969Z,11.40
2018-12-30T15:56:33.116Z,8.60
2018-12-30T15:59:07.256Z,12.03
2018-12-30T16:01:41.195Z,9.57
2018-12-30T16:04:15.373Z,12.97
2018-12-30T16:06:49.418Z,10.93
2018-12-30T16:09:23.621Z,13.87
2018-12-30T16:11:57.729Z,12.57
2018-12-30T16:14:32.508Z,12.93
2018-12-30T16:17:06.648Z,10.23
2018-12-30T16:19:41.590Z,10.63
2018-12-30T16:22:15.697Z,12.23
2018-12-30T16:24:49.857Z,14.53
2018-12-30T16:27:24.007Z,15.40
2018-12-30T16:29:58.171Z,13.93
2018-12-30T16:32:33.028Z,15.40
2018-12-30T16:35:07.132Z,16.97
2018-12-30T16:37:41.131Z,13.40
2018-12-30T16:40:16.081Z,12.57
2018-12-30T16:42:50.106Z,15.57
2018-12-30T16:45:24.397Z,11.83
2018-12-30T16:47:58.568Z,13.73
2018-12-30T16:50:32.699Z,12.67
2018-12-30T16:53:06.852Z,16.60
2018-12-30T16:55:40.811Z,20.93
2018-12-30T16:58:14.870Z,18.03
2018-12-30T17:00:49.056Z,21.27
2018-12-30T17:03:23.057Z,34.00
2018-12-30T17:05:57.088Z,15.53
2018-12-30T17:08:31.100Z,13.33
2018-12-30T17:11:05.242Z,10.90
2018-12-30T17:13:39.239Z,10.37
2018-12-30T17:16:13.372Z,12.13
2018-12-30T17:18:47.367Z,10.20
2018-12-30T17:21:22.212Z,9.80
2018-12-30T17:23:56.164Z,12.63
2018-12-30T17:26:30.320Z,10.20
2018-12-30T17:29:04.460Z,16.13
2018-12-30T17:31:39.164Z,11.73
2018-12-30T17:34:13.240Z,11.17
2018-12-30T17:36:47.286Z,11.07
2018-12-30T17:39:21.333Z,11.10
2018-12-30T17:41:55.463Z,9.53
2018-12-30T17:44:29.661Z,12.70
2018-12-30T17:47:03.648Z,15.13
2018-12-30T17:49:37.773Z,8.57
2018-12-30T17:52:12.509Z,9.20
2018-12-30T17:54:46.609Z,7.23
2018-12-30T17:57:20.680Z,13.50
2018-12-30T17:59:54.878Z,12.77
2018-12-30T18:02:29.909Z,8.47
2018-12-30T18:05:03.954Z,15.33
2018-12-30T18:07:38.004Z,19.10
2018-12-30T18:10:12.759Z,13.33
2018-12-30T18:12:46.840Z,12.23
2018-12-30T18:15:21.068Z,11.97
2018-12-30T18:17:55.051Z,13.70
2018-12-30T18:20:29.788Z,18.93
2018-12-30T18:23:04.623Z,12.33
2018-12-30T18:25:38.685Z,21.67
2018-12-30T18:28:12.900Z,18.27
2018-12-30T18:30:46.934Z,20.13
2018-12-30T18:33:20.978Z,18.37
2018-12-30T18:35:55.700Z,19.23
2018-12-30T18:38:30.608Z,19.67
2018-12-30T18:41:05.507Z,20.90
2018-12-30T18:43:40.391Z,15.97
2018-12-30T18:46:15.132Z,27.97
2018-12-30T18:48:49.156Z,18.83
2018-12-30T18:51:23.265Z,20.50
2018-12-30T18:53:57.328Z,18.13
2018-12-30T18:56:31.565Z,13.90
2018-12-30T18:59:06.522Z,14.13
2018-12-30T19:01:41.030Z,13.00
2018-12-30T19:04:15.759Z,15.33
2018-12-30T19:06:49.840Z,12.97
2018-12-30T19:09:24.016Z,9.40
2018-12-30T19:11:58.916Z,11.57
2018-12-30T19:14:33.167Z,10.00
2018-12-30T19:17:10.915Z,11.03
2018-12-30T19:19:44.954Z,14.13
2018-12-30T19:22:19.699Z,15.07
2018-12-30T19:24:53.837Z,16.50
2018-12-30T19:27:27.960Z,18.07
2018-12-30T19:30:02.183Z,15.40
2018-12-30T19:32:36.383Z,12.57
2018-12-30T19:35:10.464Z,14.20
2018-12-30T19:37:44.627Z,15.33
2018-12-30T19:40:18.585Z,12.30
2018-12-30T19:42:52.777Z,10.43
2018-12-30T19:45:26.701Z,12.73
2018-12-30T19:48:00.828Z,13.90
2018-12-30T19:50:34.921Z,12.77
2018-12-30T19:53:09.660Z,11.87
2018-12-30T19:55:44.663Z,12.37
2018-12-30T19:58:19.823Z,18.00
2018-12-30T20:00:53.853Z,14.27
2018-12-30T20:03:27.952Z,14.47
2018-12-30T20:06:02.223Z,14.10
2018-12-30T20:08:36.200Z,10.63
2018-12-30T20:11:10.261Z,12.10
2018-12-30T20:13:44.452Z,13.67
2018-12-30T20:16:18.596Z,14.20
2018-12-30T20:18:55.284Z,12.90
2018-12-30T20:21:29.647Z,14.40
2018-12-30T20:24:03.914Z,11.43
2018-12-30T20:26:37.967Z,12.77
2018-12-30T20:29:12.134Z,18.97
2018-12-30T20:31:46.244Z,12.70
2018-12-30T20:34:20.396Z,16.10
2018-12-30T20:36:54.526Z,12.47
2018-12-30T20:39:30.504Z,19.63
2018-12-30T20:42:02.912Z,18.47
2018-12-30T20:44:37.751Z,12.63
2018-12-30T20:47:11.844Z,15.40
2018-12-30T20:49:46.059Z,23.07
2018-12-30T20:52:20.096Z,20.80
2018-12-30T20:54:54.139Z,20.47
2018-12-30T20:57:28.289Z,17.77
2018-12-30T21:00:02.425Z,20.83
2018-12-30T21:02:37.204Z,14.30
2018-12-30T21:05:11.251Z,22.47
2018-12-30T21:07:45.456Z,18.23
2018-12-30T21:10:19.679Z,21.60
2018-12-30T21:12:53.932Z,18.87
2018-12-30T21:15:28.161Z,20.90
2018-12-30T21:18:08.086Z,18.63
2018-12-30T21:20:42.124Z,18.20
2018-12-30T21:23:16.320Z,22.33
2018-12-30T21:25:51.249Z,19.20
2018-12-30T21:28:26.085Z,17.57
2018-12-30T21:31:00.192Z,18.50
2018-12-30T21:33:34.147Z,18.83
2018-12-30T21:36:08.232Z,22.20
2018-12-30T21:38:42.327Z,22.33
2018-12-30T21:41:20.659Z,18.93
2018-12-30T21:43:54.640Z,20.23
2018-12-30T21:46:28.672Z,18.80
2018-12-30T21:49:02.776Z,23.27
2018-12-30T21:51:37.716Z,20.43
2018-12-30T21:54:12.707Z,18.57
2018-12-30T21:56:54.542Z,22.60
2018-12-30T21:59:22.097Z,19.43
2018-12-30T22:01:56.321Z,20.20
2018-12-30T22:04:31.167Z,19.27
2018-12-30T22:07:05.661Z,19.67
2018-12-30T22:09:40.036Z,21.40
2018-12-30T22:12:14.207Z,19.03
2018-12-30T22:14:48.484Z,23.63
2018-12-30T22:17:23.380Z,19.50
2018-12-30T22:19:58.248Z,22.67
2018-12-30T22:22:32.558Z,23.17
2018-12-30T22:25:06.984Z,15.13
2018-12-30T22:27:41.056Z,24.43
2018-12-30T22:30:15.746Z,20.57
2018-12-30T22:32:49.901Z,22.57
2018-12-30T22:35:24.085Z,17.43
2018-12-30T22:37:58.399Z,21.17
2018-12-30T22:40:32.587Z,20.70
2018-12-30T22:43:07.728Z,20.27
2018-12-30T22:45:41.965Z,24.53
2018-12-30T22:48:16.089Z,23.13
2018-12-30T22:50:50.226Z,20.90
2018-12-30T22:53:24.483Z,21.97
2018-12-30T22:55:58.762Z,22.67
2018-12-30T22:58:33.679Z,21.97
2018-12-30T23:01:07.986Z,18.67
2018-12-30T23:03:42.833Z,21.70
2018-12-30T23:06:16.936Z,25.70
2018-12-30T23:08:51.051Z,26.20
2018-12-30T23:11:25.392Z,23.87
2018-12-30T23:13:59.538Z,21.47
2018-12-30T23:16:34.531Z,26.97
2018-12-30T23:19:08.781Z,23.43
2018-12-30T23:21:42.861Z,22.90
2018-12-30T23:24:17.199Z,24.30
2018-12-30T23:26:51.537Z,25.83
2018-12-30T23:29:25.560Z,24.30
2018-12-30T23:31:59.865Z,24.43
2018-12-30T23:34:34.159Z,21.23
2018-12-30T23:37:08.452Z,22.83
2018-12-30T23:39:42.735Z,25.03
2018-12-30T23:42:17.356Z,22.77
2018-12-30T23:44:52.492Z,26.07
2018-12-30T23:47:26.563Z,19.27
2018-12-30T23:50:01.380Z,21.07
2018-12-30T23:52:35.518Z,20.33
2018-12-30T23:55:09.777Z,21.37
2018-12-30T23:57:44.198Z,22.73
